sensor_id;sensor_type;location;lat;lon;timestamp;P1;durP1;ratioP1;P2;durP2;ratioP2
3847;SDS011;1939;48.720;9.166;2022-10-16T00:00:33;6.03;;;2.20;;
3847;SDS011;1939;48.720;9.166;2022-10-16T00:02:59;9.00;;;2.50;;
3847;SDS011;1939;48.720;9.166;2022-10-16T00:05:24;3.30;;;2.13;;
3847;SDS011;1939;48.720;9.166;2022-10-16T00:07:49;5.43;;;2.30;;
3847;SDS011;1939;48.720;9.166;2022-10-16T00:10:15;9.20;;;2.67;;
3847;SDS011;1939;48.720;9.166;2022-10-16T00:12:40;5.17;;;2.23;;
3847;SDS011;1939;48.720;9.166;2022-10-16T00:17:52;2.27;;;2.07;;
3847;SDS011;1939;48.720;9.166;2022-10-16T00:20:18;2.67;;;1.93;;
3847;SDS011;1939;48.720;9.166;2022-10-16T00:22:43;3.63;;;2.50;;
3847;SDS011;1939;48.720;9.166;2022-10-16T00:25:08;6.70;;;2.80;;
3847;SDS011;1939;48.720;9.166;2022-10-16T00:27:34;3.73;;;2.63;;
3847;SDS011;1939;48.720;9.166;2022-10-16T00:29:59;11.33;;;2.53;;
3847;SDS011;1939;48.720;9.166;2022-10-16T00:32:24;8.30;;;2.70;;
3847;SDS011;1939;48.720;9.166;2022-10-16T00:34:49;6.50;;;3.00;;
3847;SDS011;1939;48.720;9.166;2022-10-16T00:37:15;6.70;;;2.27;;
3847;SDS011;1939;48.720;9.166;2022-10-16T00:42:33;6.60;;;2.50;;
3847;SDS011;1939;48.720;9.166;2022-10-16T00:44:58;5.33;;;2.53;;
3847;SDS011;1939;48.720;9.166;2022-10-16T00:47:28;3.27;;;2.53;;
3847;SDS011;1939;48.720;9.166;2022-10-16T00:49:56;8.30;;;2.93;;
3847;SDS011;1939;48.720;9.166;2022-10-16T00:52:22;4.60;;;2.30;;
3847;SDS011;1939;48.720;9.166;2022-10-16T00:54:48;2.90;;;1.80;;
3847;SDS011;1939;48.720;9.166;2022-10-16T00:57:14;7.50;;;2.70;;
3847;SDS011;1939;48.720;9.166;2022-10-16T00:59:39;7.03;;;2.23;;
3847;SDS011;1939;48.720;9.166;2022-10-16T01:04:50;8.33;;;2.30;;
3847;SDS011;1939;48.720;9.166;2022-10-16T01:18:09;2.10;;;1.90;;
3847;SDS011;1939;48.720;9.166;2022-10-16T01:20:40;3.50;;;2.40;;
3847;SDS011;1939;48.720;9.166;2022-10-16T01:28:39;3.33;;;2.87;;
3847;SDS011;1939;48.720;9.166;2022-10-16T01:31:06;12.10;;;3.40;;
3847;SDS011;1939;48.720;9.166;2022-10-16T01:33:35;3.37;;;2.17;;
3847;SDS011;1939;48.720;9.166;2022-10-16T01:36:02;6.10;;;2.97;;
3847;SDS011;1939;48.720;9.166;2022-10-16T01:38:35;8.10;;;2.97;;
3847;SDS011;1939;48.720;9.166;2022-10-16T01:41:03;4.87;;;2.50;;
3847;SDS011;1939;48.720;9.166;2022-10-16T01:43:34;10.53;;;2.43;;
3847;SDS011;1939;48.720;9.166;2022-10-16T01:46:01;6.40;;;2.67;;
3847;SDS011;1939;48.720;9.166;2022-10-16T01:48:35;17.13;;;3.00;;
3847;SDS011;1939;48.720;9.166;2022-10-16T01:51:11;7.37;;;2.80;;
3847;SDS011;1939;48.720;9.166;2022-10-16T01:53:37;3.90;;;3.00;;
3847;SDS011;1939;48.720;9.166;2022-10-16T01:56:03;9.20;;;2.80;;
3847;SDS011;1939;48.720;9.166;2022-10-16T01:58:30;7.27;;;3.37;;
3847;SDS011;1939;48.720;9.166;2022-10-16T02:00:59;4.30;;;2.90;;
3847;SDS011;1939;48.720;9.166;2022-10-16T02:03:25;8.47;;;3.53;;
3847;SDS011;1939;48.720;9.166;2022-10-16T02:05:54;13.10;;;2.90;;
3847;SDS011;1939;48.720;9.166;2022-10-16T02:08:29;4.53;;;3.10;;
3847;SDS011;1939;48.720;9.166;2022-10-16T02:10:56;6.03;;;2.80;;
3847;SDS011;1939;48.720;9.166;2022-10-16T02:13:26;6.93;;;3.60;;
3847;SDS011;1939;48.720;9.166;2022-10-16T02:15:52;3.03;;;2.57;;
3847;SDS011;1939;48.720;9.166;2022-10-16T02:18:18;5.23;;;3.37;;
3847;SDS011;1939;48.720;9.166;2022-10-16T02:20:54;5.97;;;3.13;;
3847;SDS011;1939;48.720;9.166;2022-10-16T02:23:24;11.00;;;3.00;;
3847;SDS011;1939;48.720;9.166;2022-10-16T02:25:49;5.10;;;3.27;;
3847;SDS011;1939;48.720;9.166;2022-10-16T02:28:26;2.90;;;2.63;;
3847;SDS011;1939;48.720;9.166;2022-10-16T02:31:03;6.43;;;2.97;;
3847;SDS011;1939;48.720;9.166;2022-10-16T02:33:29;11.60;;;2.57;;
3847;SDS011;1939;48.720;9.166;2022-10-16T02:36:07;5.53;;;3.40;;
3847;SDS011;1939;48.720;9.166;2022-10-16T02:38:33;14.27;;;3.03;;
3847;SDS011;1939;48.720;9.166;2022-10-16T02:40:58;13.40;;;2.60;;
3847;SDS011;1939;48.720;9.166;2022-10-16T02:43:24;6.37;;;2.57;;
3847;SDS011;1939;48.720;9.166;2022-10-16T02:45:50;4.37;;;2.80;;
3847;SDS011;1939;48.720;9.166;2022-10-16T02:48:15;11.43;;;2.40;;
3847;SDS011;1939;48.720;9.166;2022-10-16T02:50:42;9.03;;;2.60;;
3847;SDS011;1939;48.720;9.166;2022-10-16T02:53:08;4.10;;;2.73;;
3847;SDS011;1939;48.720;9.166;2022-10-16T02:55:34;5.27;;;2.53;;
3847;SDS011;1939;48.720;9.166;2022-10-16T02:57:59;4.00;;;2.77;;
3847;SDS011;1939;48.720;9.166;2022-10-16T03:00:24;10.57;;;3.20;;
3847;SDS011;1939;48.720;9.166;2022-10-16T03:02:49;5.30;;;2.90;;
3847;SDS011;1939;48.720;9.166;2022-10-16T03:05:15;10.83;;;3.37;;
3847;SDS011;1939;48.720;9.166;2022-10-16T03:07:40;15.23;;;3.40;;
3847;SDS011;1939;48.720;9.166;2022-10-16T03:10:17;14.03;;;2.80;;
3847;SDS011;1939;48.720;9.166;2022-10-16T03:12:43;8.57;;;3.20;;
3847;SDS011;1939;48.720;9.166;2022-10-16T03:15:08;7.60;;;2.57;;
3847;SDS011;1939;48.720;9.166;2022-10-16T03:17:33;7.80;;;2.83;;
3847;SDS011;1939;48.720;9.166;2022-10-16T03:19:59;11.40;;;3.57;;
3847;SDS011;1939;48.720;9.166;2022-10-16T03:22:24;10.13;;;3.07;;
3847;SDS011;1939;48.720;9.166;2022-10-16T03:24:50;4.87;;;2.50;;
3847;SDS011;1939;48.720;9.166;2022-10-16T03:27:15;4.80;;;2.90;;
3847;SDS011;1939;48.720;9.166;2022-10-16T03:29:40;7.97;;;3.20;;
3847;SDS011;1939;48.720;9.166;2022-10-16T03:32:06;7.20;;;2.70;;
3847;SDS011;1939;48.720;9.166;2022-10-16T03:34:33;6.10;;;2.73;;
3847;SDS011;1939;48.720;9.166;2022-10-16T03:36:58;3.60;;;2.83;;
3847;SDS011;1939;48.720;9.166;2022-10-16T03:39:25;2.43;;;2.00;;
3847;SDS011;1939;48.720;9.166;2022-10-16T03:41:50;3.90;;;2.90;;
3847;SDS011;1939;48.720;9.166;2022-10-16T03:44:31;6.17;;;3.80;;
3847;SDS011;1939;48.720;9.166;2022-10-16T03:46:57;6.97;;;3.30;;
3847;SDS011;1939;48.720;9.166;2022-10-16T03:49:22;2.80;;;2.33;;
3847;SDS011;1939;48.720;9.166;2022-10-16T03:51:48;4.40;;;2.67;;
3847;SDS011;1939;48.720;9.166;2022-10-16T03:54:13;4.17;;;2.73;;
3847;SDS011;1939;48.720;9.166;2022-10-16T03:56:39;5.77;;;2.70;;
3847;SDS011;1939;48.720;9.166;2022-10-16T03:59:04;5.40;;;2.53;;
3847;SDS011;1939;48.720;9.166;2022-10-16T04:01:30;3.20;;;2.90;;
3847;SDS011;1939;48.720;9.166;2022-10-16T04:03:55;3.43;;;2.37;;
3847;SDS011;1939;48.720;9.166;2022-10-16T04:06:20;2.87;;;2.53;;
3847;SDS011;1939;48.720;9.166;2022-10-16T04:08:46;5.07;;;2.33;;
3847;SDS011;1939;48.720;9.166;2022-10-16T04:11:11;4.83;;;2.20;;
3847;SDS011;1939;48.720;9.166;2022-10-16T04:13:36;3.30;;;2.03;;
3847;SDS011;1939;48.720;9.166;2022-10-16T04:16:02;6.03;;;2.67;;
3847;SDS011;1939;48.720;9.166;2022-10-16T04:18:27;4.33;;;2.40;;
3847;SDS011;1939;48.720;9.166;2022-10-16T04:20:54;7.20;;;2.77;;
3847;SDS011;1939;48.720;9.166;2022-10-16T04:23:19;5.70;;;2.60;;
3847;SDS011;1939;48.720;9.166;2022-10-16T04:25:45;4.53;;;3.70;;
3847;SDS011;1939;48.720;9.166;2022-10-16T04:28:11;4.83;;;3.10;;
3847;SDS011;1939;48.720;9.166;2022-10-16T04:30:39;4.20;;;3.73;;
3847;SDS011;1939;48.720;9.166;2022-10-16T04:33:05;5.80;;;3.10;;
3847;SDS011;1939;48.720;9.166;2022-10-16T04:35:30;4.73;;;2.80;;
3847;SDS011;1939;48.720;9.166;2022-10-16T04:37:57;5.57;;;2.33;;
3847;SDS011;1939;48.720;9.166;2022-10-16T04:40:23;7.80;;;2.93;;
3847;SDS011;1939;48.720;9.166;2022-10-16T04:42:48;4.30;;;2.33;;
3847;SDS011;1939;48.720;9.166;2022-10-16T04:45:13;3.40;;;2.70;;
3847;SDS011;1939;48.720;9.166;2022-10-16T04:47:39;5.07;;;2.90;;
3847;SDS011;1939;48.720;9.166;2022-10-16T04:50:04;5.00;;;2.70;;
3847;SDS011;1939;48.720;9.166;2022-10-16T04:52:29;2.60;;;2.33;;
3847;SDS011;1939;48.720;9.166;2022-10-16T04:54:56;4.40;;;2.70;;
3847;SDS011;1939;48.720;9.166;2022-10-16T04:57:25;5.03;;;1.77;;
3847;SDS011;1939;48.720;9.166;2022-10-16T04:59:51;10.60;;;2.87;;
3847;SDS011;1939;48.720;9.166;2022-10-16T05:02:17;9.33;;;2.70;;
3847;SDS011;1939;48.720;9.166;2022-10-16T05:04:42;4.50;;;2.60;;
3847;SDS011;1939;48.720;9.166;2022-10-16T05:07:07;3.67;;;2.23;;
3847;SDS011;1939;48.720;9.166;2022-10-16T05:09:33;3.33;;;2.50;;
3847;SDS011;1939;48.720;9.166;2022-10-16T05:11:58;14.60;;;2.73;;
3847;SDS011;1939;48.720;9.166;2022-10-16T05:14:23;5.43;;;2.37;;
3847;SDS011;1939;48.720;9.166;2022-10-16T05:16:48;8.50;;;2.77;;
3847;SDS011;1939;48.720;9.166;2022-10-16T05:19:14;3.60;;;2.33;;
3847;SDS011;1939;48.720;9.166;2022-10-16T05:21:39;8.20;;;2.23;;
3847;SDS011;1939;48.720;9.166;2022-10-16T05:24:05;32.57;;;12.93;;
3847;SDS011;1939;48.720;9.166;2022-10-16T05:26:30;73.30;;;31.53;;
3847;SDS011;1939;48.720;9.166;2022-10-16T05:28:55;101.93;;;39.90;;
3847;SDS011;1939;48.720;9.166;2022-10-16T05:31:20;20.67;;;10.43;;
3847;SDS011;1939;48.720;9.166;2022-10-16T05:33:45;28.90;;;7.07;;
3847;SDS011;1939;48.720;9.166;2022-10-16T05:36:11;13.33;;;6.00;;
3847;SDS011;1939;48.720;9.166;2022-10-16T05:38:36;26.23;;;11.27;;
3847;SDS011;1939;48.720;9.166;2022-10-16T05:41:02;9.20;;;4.83;;
3847;SDS011;1939;48.720;9.166;2022-10-16T05:43:28;11.90;;;4.00;;
3847;SDS011;1939;48.720;9.166;2022-10-16T05:45:54;13.67;;;5.47;;
3847;SDS011;1939;48.720;9.166;2022-10-16T05:48:19;5.60;;;3.30;;
3847;SDS011;1939;48.720;9.166;2022-10-16T05:50:45;6.63;;;3.30;;
3847;SDS011;1939;48.720;9.166;2022-10-16T05:53:10;4.80;;;2.80;;
3847;SDS011;1939;48.720;9.166;2022-10-16T05:55:35;4.03;;;3.27;;
3847;SDS011;1939;48.720;9.166;2022-10-16T05:58:00;14.10;;;3.10;;
3847;SDS011;1939;48.720;9.166;2022-10-16T06:00:26;7.40;;;4.40;;
3847;SDS011;1939;48.720;9.166;2022-10-16T06:02:51;13.13;;;5.23;;
3847;SDS011;1939;48.720;9.166;2022-10-16T06:05:16;7.10;;;4.40;;
3847;SDS011;1939;48.720;9.166;2022-10-16T06:07:41;9.20;;;3.97;;
3847;SDS011;1939;48.720;9.166;2022-10-16T06:10:07;7.47;;;4.27;;
3847;SDS011;1939;48.720;9.166;2022-10-16T06:12:32;3.63;;;2.60;;
3847;SDS011;1939;48.720;9.166;2022-10-16T06:14:57;3.60;;;2.90;;
3847;SDS011;1939;48.720;9.166;2022-10-16T06:17:23;8.97;;;2.47;;
3847;SDS011;1939;48.720;9.166;2022-10-16T06:19:48;5.27;;;2.23;;
3847;SDS011;1939;48.720;9.166;2022-10-16T06:22:13;5.77;;;2.60;;
3847;SDS011;1939;48.720;9.166;2022-10-16T06:24:39;22.70;;;11.23;;
3847;SDS011;1939;48.720;9.166;2022-10-16T06:27:04;8.70;;;3.30;;
3847;SDS011;1939;48.720;9.166;2022-10-16T06:29:29;4.10;;;2.90;;
3847;SDS011;1939;48.720;9.166;2022-10-16T06:31:54;2.73;;;2.30;;
3847;SDS011;1939;48.720;9.166;2022-10-16T06:34:20;4.17;;;2.23;;
3847;SDS011;1939;48.720;9.166;2022-10-16T06:36:45;3.00;;;1.80;;
3847;SDS011;1939;48.720;9.166;2022-10-16T06:39:10;3.00;;;1.80;;
3847;SDS011;1939;48.720;9.166;2022-10-16T06:41:35;4.13;;;1.90;;
3847;SDS011;1939;48.720;9.166;2022-10-16T06:44:01;3.53;;;1.87;;
3847;SDS011;1939;48.720;9.166;2022-10-16T06:46:26;2.67;;;2.00;;
3847;SDS011;1939;48.720;9.166;2022-10-16T06:48:52;3.57;;;1.50;;
3847;SDS011;1939;48.720;9.166;2022-10-16T06:51:19;4.83;;;2.00;;
3847;SDS011;1939;48.720;9.166;2022-10-16T06:53:45;5.83;;;2.13;;
3847;SDS011;1939;48.720;9.166;2022-10-16T06:56:15;4.63;;;1.60;;
3847;SDS011;1939;48.720;9.166;2022-10-16T06:58:40;3.17;;;2.00;;
3847;SDS011;1939;48.720;9.166;2022-10-16T07:01:06;5.17;;;1.70;;
3847;SDS011;1939;48.720;9.166;2022-10-16T07:03:31;9.43;;;2.23;;
3847;SDS011;1939;48.720;9.166;2022-10-16T07:05:57;13.60;;;1.67;;
3847;SDS011;1939;48.720;9.166;2022-10-16T07:08:26;7.17;;;2.00;;
3847;SDS011;1939;48.720;9.166;2022-10-16T07:10:57;5.93;;;1.70;;
3847;SDS011;1939;48.720;9.166;2022-10-16T07:13:22;4.00;;;1.67;;
3847;SDS011;1939;48.720;9.166;2022-10-16T07:15:48;3.80;;;1.87;;
3847;SDS011;1939;48.720;9.166;2022-10-16T07:18:22;8.17;;;1.80;;
3847;SDS011;1939;48.720;9.166;2022-10-16T07:20:51;9.43;;;2.07;;
3847;SDS011;1939;48.720;9.166;2022-10-16T07:23:16;5.13;;;1.93;;
3847;SDS011;1939;48.720;9.166;2022-10-16T07:25:54;1.80;;;1.63;;
3847;SDS011;1939;48.720;9.166;2022-10-16T07:28:19;4.03;;;1.63;;
3847;SDS011;1939;48.720;9.166;2022-10-16T07:30:45;3.23;;;1.43;;
3847;SDS011;1939;48.720;9.166;2022-10-16T07:33:10;1.97;;;1.60;;
3847;SDS011;1939;48.720;9.166;2022-10-16T07:35:35;15.83;;;2.10;;
3847;SDS011;1939;48.720;9.166;2022-10-16T07:38:00;7.50;;;1.70;;
3847;SDS011;1939;48.720;9.166;2022-10-16T07:40:26;7.07;;;2.30;;
3847;SDS011;1939;48.720;9.166;2022-10-16T07:42:52;7.93;;;2.07;;
3847;SDS011;1939;48.720;9.166;2022-10-16T07:45:17;12.47;;;1.73;;
3847;SDS011;1939;48.720;9.166;2022-10-16T07:47:42;6.87;;;1.80;;
3847;SDS011;1939;48.720;9.166;2022-10-16T07:50:07;8.70;;;2.50;;
3847;SDS011;1939;48.720;9.166;2022-10-16T07:52:33;2.50;;;2.23;;
3847;SDS011;1939;48.720;9.166;2022-10-16T07:54:58;10.70;;;2.20;;
3847;SDS011;1939;48.720;9.166;2022-10-16T07:57:23;3.23;;;1.90;;
3847;SDS011;1939;48.720;9.166;2022-10-16T07:59:48;3.53;;;2.00;;
3847;SDS011;1939;48.720;9.166;2022-10-16T08:02:14;9.20;;;1.80;;
3847;SDS011;1939;48.720;9.166;2022-10-16T08:04:39;8.97;;;2.20;;
3847;SDS011;1939;48.720;9.166;2022-10-16T08:07:06;3.30;;;1.70;;
3847;SDS011;1939;48.720;9.166;2022-10-16T08:09:31;3.43;;;1.70;;
3847;SDS011;1939;48.720;9.166;2022-10-16T08:14:44;4.33;;;2.40;;
3847;SDS011;1939;48.720;9.166;2022-10-16T08:17:09;3.50;;;2.10;;
3847;SDS011;1939;48.720;9.166;2022-10-16T08:19:34;16.20;;;3.50;;
3847;SDS011;1939;48.720;9.166;2022-10-16T08:22:00;5.10;;;1.97;;
3847;SDS011;1939;48.720;9.166;2022-10-16T08:24:25;9.03;;;2.00;;
3847;SDS011;1939;48.720;9.166;2022-10-16T08:26:53;4.30;;;2.07;;
3847;SDS011;1939;48.720;9.166;2022-10-16T08:29:18;2.50;;;1.90;;
3847;SDS011;1939;48.720;9.166;2022-10-16T08:31:43;4.63;;;2.83;;
3847;SDS011;1939;48.720;9.166;2022-10-16T08:34:09;4.80;;;1.90;;
3847;SDS011;1939;48.720;9.166;2022-10-16T08:36:34;2.10;;;1.90;;
3847;SDS011;1939;48.720;9.166;2022-10-16T08:38:59;4.90;;;1.83;;
3847;SDS011;1939;48.720;9.166;2022-10-16T08:41:32;3.73;;;1.70;;
3847;SDS011;1939;48.720;9.166;2022-10-16T08:44:21;4.77;;;1.83;;
3847;SDS011;1939;48.720;9.166;2022-10-16T08:47:00;2.73;;;2.20;;
3847;SDS011;1939;48.720;9.166;2022-10-16T08:49:27;2.10;;;1.70;;
3847;SDS011;1939;48.720;9.166;2022-10-16T08:51:52;3.00;;;1.90;;
3847;SDS011;1939;48.720;9.166;2022-10-16T08:54:22;3.20;;;1.93;;
3847;SDS011;1939;48.720;9.166;2022-10-16T08:56:53;3.20;;;1.40;;
3847;SDS011;1939;48.720;9.166;2022-10-16T08:59:19;6.17;;;1.47;;
3847;SDS011;1939;48.720;9.166;2022-10-16T09:01:44;1.77;;;1.30;;
3847;SDS011;1939;48.720;9.166;2022-10-16T09:06:59;7.80;;;2.43;;
3847;SDS011;1939;48.720;9.166;2022-10-16T09:17:14;4.60;;;1.80;;
3847;SDS011;1939;48.720;9.166;2022-10-16T09:22:27;2.03;;;1.47;;
3847;SDS011;1939;48.720;9.166;2022-10-16T09:24:54;17.50;;;1.83;;
3847;SDS011;1939;48.720;9.166;2022-10-16T09:27:19;2.30;;;1.30;;
3847;SDS011;1939;48.720;9.166;2022-10-16T09:29:45;1.43;;;1.23;;
3847;SDS011;1939;48.720;9.166;2022-10-16T09:32:14;5.93;;;1.60;;
3847;SDS011;1939;48.720;9.166;2022-10-16T09:34:42;7.20;;;1.53;;
3847;SDS011;1939;48.720;9.166;2022-10-16T09:37:09;3.30;;;1.70;;
3847;SDS011;1939;48.720;9.166;2022-10-16T09:39:45;7.47;;;1.50;;
3847;SDS011;1939;48.720;9.166;2022-10-16T09:42:13;2.17;;;1.30;;
3847;SDS011;1939;48.720;9.166;2022-10-16T09:44:39;1.13;;;0.93;;
3847;SDS011;1939;48.720;9.166;2022-10-16T09:47:12;1.97;;;1.10;;
3847;SDS011;1939;48.720;9.166;2022-10-16T09:49:37;2.30;;;1.30;;
3847;SDS011;1939;48.720;9.166;2022-10-16T09:52:10;2.03;;;1.30;;
3847;SDS011;1939;48.720;9.166;2022-10-16T09:54:36;2.50;;;1.50;;
3847;SDS011;1939;48.720;9.166;2022-10-16T09:57:06;3.30;;;1.03;;
3847;SDS011;1939;48.720;9.166;2022-10-16T09:59:31;3.10;;;1.63;;
3847;SDS011;1939;48.720;9.166;2022-10-16T10:02:00;6.30;;;2.10;;
3847;SDS011;1939;48.720;9.166;2022-10-16T10:04:36;2.00;;;1.30;;
3847;SDS011;1939;48.720;9.166;2022-10-16T10:07:02;5.03;;;1.47;;
3847;SDS011;1939;48.720;9.166;2022-10-16T10:09:44;8.13;;;1.30;;
3847;SDS011;1939;48.720;9.166;2022-10-16T10:12:26;4.40;;;1.10;;
3847;SDS011;1939;48.720;9.166;2022-10-16T10:14:52;1.60;;;1.13;;
3847;SDS011;1939;48.720;9.166;2022-10-16T10:17:22;10.40;;;1.43;;
3847;SDS011;1939;48.720;9.166;2022-10-16T10:27:29;2.30;;;1.10;;
3847;SDS011;1939;48.720;9.166;2022-10-16T10:40:33;5.23;;;1.43;;
3847;SDS011;1939;48.720;9.166;2022-10-16T10:43:06;7.93;;;1.43;;
3847;SDS011;1939;48.720;9.166;2022-10-16T10:45:37;1.27;;;1.17;;
3847;SDS011;1939;48.720;9.166;2022-10-16T10:50:49;6.67;;;1.37;;
3847;SDS011;1939;48.720;9.166;2022-10-16T11:01:11;3.80;;;1.20;;
3847;SDS011;1939;48.720;9.166;2022-10-16T11:06:10;7.00;;;2.00;;
3847;SDS011;1939;48.720;9.166;2022-10-16T11:08:41;1.83;;;1.43;;
3847;SDS011;1939;48.720;9.166;2022-10-16T11:11:09;1.87;;;1.17;;
3847;SDS011;1939;48.720;9.166;2022-10-16T11:13:43;5.10;;;1.27;;
3847;SDS011;1939;48.720;9.166;2022-10-16T11:16:16;6.30;;;1.40;;
3847;SDS011;1939;48.720;9.166;2022-10-16T11:21:17;1.67;;;1.40;;
3847;SDS011;1939;48.720;9.166;2022-10-16T11:26:11;3.23;;;1.40;;
3847;SDS011;1939;48.720;9.166;2022-10-16T11:28:51;3.90;;;2.27;;
3847;SDS011;1939;48.720;9.166;2022-10-16T11:31:30;3.00;;;1.47;;
3847;SDS011;1939;48.720;9.166;2022-10-16T11:34:03;3.63;;;1.30;;
3847;SDS011;1939;48.720;9.166;2022-10-16T11:37:06;4.10;;;3.33;;
3847;SDS011;1939;48.720;9.166;2022-10-16T11:39:21;9.27;;;1.23;;
3847;SDS011;1939;48.720;9.166;2022-10-16T11:41:50;4.70;;;1.40;;
3847;SDS011;1939;48.720;9.166;2022-10-16T11:49:44;2.93;;;1.67;;
3847;SDS011;1939;48.720;9.166;2022-10-16T11:55:13;4.80;;;1.20;;
3847;SDS011;1939;48.720;9.166;2022-10-16T11:57:40;5.07;;;1.30;;
3847;SDS011;1939;48.720;9.166;2022-10-16T12:00:31;1.70;;;1.10;;
3847;SDS011;1939;48.720;9.166;2022-10-16T12:08:01;1.73;;;1.50;;
3847;SDS011;1939;48.720;9.166;2022-10-16T12:10:29;1.30;;;1.00;;
3847;SDS011;1939;48.720;9.166;2022-10-16T12:12:57;2.50;;;1.27;;
3847;SDS011;1939;48.720;9.166;2022-10-16T12:15:24;1.10;;;0.90;;
3847;SDS011;1939;48.720;9.166;2022-10-16T12:17:50;2.70;;;0.90;;
3847;SDS011;1939;48.720;9.166;2022-10-16T12:22:48;2.23;;;1.00;;
3847;SDS011;1939;48.720;9.166;2022-10-16T12:25:21;6.13;;;1.33;;
3847;SDS011;1939;48.720;9.166;2022-10-16T12:27:53;5.30;;;1.40;;
3847;SDS011;1939;48.720;9.166;2022-10-16T12:30:20;1.33;;;1.23;;
3847;SDS011;1939;48.720;9.166;2022-10-16T12:32:53;1.20;;;1.10;;
3847;SDS011;1939;48.720;9.166;2022-10-16T12:35:22;1.97;;;1.40;;
3847;SDS011;1939;48.720;9.166;2022-10-16T12:37:48;7.63;;;1.30;;
3847;SDS011;1939;48.720;9.166;2022-10-16T12:40:31;1.47;;;1.37;;
3847;SDS011;1939;48.720;9.166;2022-10-16T12:42:57;1.80;;;0.90;;
3847;SDS011;1939;48.720;9.166;2022-10-16T12:45:30;4.20;;;1.40;;
3847;SDS011;1939;48.720;9.166;2022-10-16T12:47:56;1.43;;;1.20;;
3847;SDS011;1939;48.720;9.166;2022-10-16T12:50:30;6.63;;;1.50;;
3847;SDS011;1939;48.720;9.166;2022-10-16T12:52:56;6.53;;;1.80;;
3847;SDS011;1939;48.720;9.166;2022-10-16T12:55:21;2.00;;;1.77;;
3847;SDS011;1939;48.720;9.166;2022-10-16T13:26:46;2.00;;;1.43;;
3847;SDS011;1939;48.720;9.166;2022-10-16T13:29:14;4.50;;;1.60;;
3847;SDS011;1939;48.720;9.166;2022-10-16T13:31:40;2.80;;;1.43;;
3847;SDS011;1939;48.720;9.166;2022-10-16T13:34:05;3.50;;;1.50;;
3847;SDS011;1939;48.720;9.166;2022-10-16T13:36:48;1.67;;;1.47;;
3847;SDS011;1939;48.720;9.166;2022-10-16T13:39:25;3.27;;;1.70;;
3847;SDS011;1939;48.720;9.166;2022-10-16T13:42:09;2.70;;;1.30;;
3847;SDS011;1939;48.720;9.166;2022-10-16T13:44:42;2.00;;;1.63;;
3847;SDS011;1939;48.720;9.166;2022-10-16T13:47:18;2.00;;;1.60;;
3847;SDS011;1939;48.720;9.166;2022-10-16T13:49:44;2.40;;;1.47;;
3847;SDS011;1939;48.720;9.166;2022-10-16T13:54:59;4.53;;;1.83;;
3847;SDS011;1939;48.720;9.166;2022-10-16T13:57:25;2.13;;;1.70;;
3847;SDS011;1939;48.720;9.166;2022-10-16T13:59:50;3.43;;;1.77;;
3847;SDS011;1939;48.720;9.166;2022-10-16T14:07:41;3.67;;;1.60;;
3847;SDS011;1939;48.720;9.166;2022-10-16T14:10:18;3.43;;;2.23;;
3847;SDS011;1939;48.720;9.166;2022-10-16T14:12:44;2.53;;;2.00;;
3847;SDS011;1939;48.720;9.166;2022-10-16T14:15:17;5.70;;;2.80;;
3847;SDS011;1939;48.720;9.166;2022-10-16T14:18:02;3.50;;;1.90;;
3847;SDS011;1939;48.720;9.166;2022-10-16T14:20:29;6.90;;;1.70;;
3847;SDS011;1939;48.720;9.166;2022-10-16T14:22:58;2.77;;;1.67;;
3847;SDS011;1939;48.720;9.166;2022-10-16T14:25:25;4.97;;;2.53;;
3847;SDS011;1939;48.720;9.166;2022-10-16T14:28:04;4.33;;;2.10;;
3847;SDS011;1939;48.720;9.166;2022-10-16T14:30:30;4.20;;;2.10;;
3847;SDS011;1939;48.720;9.166;2022-10-16T14:33:06;3.07;;;2.77;;
3847;SDS011;1939;48.720;9.166;2022-10-16T14:35:32;2.50;;;2.30;;
3847;SDS011;1939;48.720;9.166;2022-10-16T14:37:58;5.70;;;2.60;;
3847;SDS011;1939;48.720;9.166;2022-10-16T14:40:25;4.53;;;2.67;;
3847;SDS011;1939;48.720;9.166;2022-10-16T14:42:51;3.10;;;2.60;;
3847;SDS011;1939;48.720;9.166;2022-10-16T14:45:24;2.70;;;1.70;;
3847;SDS011;1939;48.720;9.166;2022-10-16T14:47:50;4.33;;;1.93;;
3847;SDS011;1939;48.720;9.166;2022-10-16T14:50:17;7.03;;;2.33;;
3847;SDS011;1939;48.720;9.166;2022-10-16T14:52:42;2.10;;;1.87;;
3847;SDS011;1939;48.720;9.166;2022-10-16T14:55:09;4.53;;;1.90;;
3847;SDS011;1939;48.720;9.166;2022-10-16T14:57:34;3.70;;;2.10;;
3847;SDS011;1939;48.720;9.166;2022-10-16T15:00:00;5.00;;;2.00;;
3847;SDS011;1939;48.720;9.166;2022-10-16T15:02:30;3.77;;;1.90;;
3847;SDS011;1939;48.720;9.166;2022-10-16T15:04:55;2.50;;;2.10;;
3847;SDS011;1939;48.720;9.166;2022-10-16T15:07:21;3.30;;;1.80;;
3847;SDS011;1939;48.720;9.166;2022-10-16T15:09:46;8.63;;;2.07;;
3847;SDS011;1939;48.720;9.166;2022-10-16T15:12:11;6.43;;;2.40;;
3847;SDS011;1939;48.720;9.166;2022-10-16T15:14:37;5.37;;;2.23;;
3847;SDS011;1939;48.720;9.166;2022-10-16T15:17:02;8.27;;;2.20;;
3847;SDS011;1939;48.720;9.166;2022-10-16T15:19:27;11.13;;;2.60;;
3847;SDS011;1939;48.720;9.166;2022-10-16T15:21:52;7.03;;;2.40;;
3847;SDS011;1939;48.720;9.166;2022-10-16T15:24:18;4.63;;;1.80;;
3847;SDS011;1939;48.720;9.166;2022-10-16T15:26:43;5.03;;;2.53;;
3847;SDS011;1939;48.720;9.166;2022-10-16T15:29:10;3.20;;;2.50;;
3847;SDS011;1939;48.720;9.166;2022-10-16T15:31:36;5.17;;;2.37;;
3847;SDS011;1939;48.720;9.166;2022-10-16T15:34:02;5.07;;;3.20;;
3847;SDS011;1939;48.720;9.166;2022-10-16T15:36:30;7.77;;;2.70;;
3847;SDS011;1939;48.720;9.166;2022-10-16T15:39:15;10.10;;;3.20;;
3847;SDS011;1939;48.720;9.166;2022-10-16T15:41:41;6.73;;;2.50;;
3847;SDS011;1939;48.720;9.166;2022-10-16T15:44:06;4.63;;;2.63;;
3847;SDS011;1939;48.720;9.166;2022-10-16T15:46:32;4.43;;;2.20;;
3847;SDS011;1939;48.720;9.166;2022-10-16T15:48:58;2.03;;;1.80;;
3847;SDS011;1939;48.720;9.166;2022-10-16T15:51:24;3.47;;;2.20;;
3847;SDS011;1939;48.720;9.166;2022-10-16T15:53:49;5.17;;;2.00;;
3847;SDS011;1939;48.720;9.166;2022-10-16T15:56:16;4.70;;;2.53;;
3847;SDS011;1939;48.720;9.166;2022-10-16T15:58:41;5.33;;;2.30;;
3847;SDS011;1939;48.720;9.166;2022-10-16T16:01:07;3.07;;;2.70;;
3847;SDS011;1939;48.720;9.166;2022-10-16T16:03:34;4.90;;;2.20;;
3847;SDS011;1939;48.720;9.166;2022-10-16T16:06:04;7.53;;;2.73;;
3847;SDS011;1939;48.720;9.166;2022-10-16T16:08:30;5.97;;;2.73;;
3847;SDS011;1939;48.720;9.166;2022-10-16T16:11:29;5.00;;;2.83;;
3847;SDS011;1939;48.720;9.166;2022-10-16T16:13:48;4.37;;;2.80;;
3847;SDS011;1939;48.720;9.166;2022-10-16T16:16:14;11.63;;;3.10;;
3847;SDS011;1939;48.720;9.166;2022-10-16T16:18:40;5.73;;;2.93;;
3847;SDS011;1939;48.720;9.166;2022-10-16T16:21:06;11.63;;;2.70;;
3847;SDS011;1939;48.720;9.166;2022-10-16T16:23:31;14.17;;;3.93;;
3847;SDS011;1939;48.720;9.166;2022-10-16T16:26:08;5.83;;;2.30;;
3847;SDS011;1939;48.720;9.166;2022-10-16T16:28:34;5.13;;;3.60;;
3847;SDS011;1939;48.720;9.166;2022-10-16T16:31:03;8.93;;;3.20;;
3847;SDS011;1939;48.720;9.166;2022-10-16T16:33:28;4.80;;;3.17;;
3847;SDS011;1939;48.720;9.166;2022-10-16T16:35:57;5.70;;;2.53;;
3847;SDS011;1939;48.720;9.166;2022-10-16T16:38:22;4.20;;;2.40;;
3847;SDS011;1939;48.720;9.166;2022-10-16T16:40:48;4.63;;;2.87;;
3847;SDS011;1939;48.720;9.166;2022-10-16T16:43:13;8.33;;;2.93;;
3847;SDS011;1939;48.720;9.166;2022-10-16T16:45:38;5.20;;;3.03;;
3847;SDS011;1939;48.720;9.166;2022-10-16T16:48:03;12.53;;;3.07;;
3847;SDS011;1939;48.720;9.166;2022-10-16T16:50:31;4.57;;;2.67;;
3847;SDS011;1939;48.720;9.166;2022-10-16T16:52:59;13.23;;;3.10;;
3847;SDS011;1939;48.720;9.166;2022-10-16T16:55:27;7.23;;;2.97;;
3847;SDS011;1939;48.720;9.166;2022-10-16T16:57:52;4.47;;;3.20;;
3847;SDS011;1939;48.720;9.166;2022-10-16T17:00:20;11.33;;;3.80;;
3847;SDS011;1939;48.720;9.166;2022-10-16T17:02:48;6.07;;;2.80;;
3847;SDS011;1939;48.720;9.166;2022-10-16T17:05:14;6.93;;;3.30;;
3847;SDS011;1939;48.720;9.166;2022-10-16T17:07:39;5.97;;;3.03;;
3847;SDS011;1939;48.720;9.166;2022-10-16T17:10:06;16.90;;;4.07;;
3847;SDS011;1939;48.720;9.166;2022-10-16T17:12:31;7.63;;;3.07;;
3847;SDS011;1939;48.720;9.166;2022-10-16T17:14:57;4.17;;;2.60;;
3847;SDS011;1939;48.720;9.166;2022-10-16T17:17:23;8.20;;;3.07;;
3847;SDS011;1939;48.720;9.166;2022-10-16T17:19:49;4.70;;;3.23;;
3847;SDS011;1939;48.720;9.166;2022-10-16T17:22:24;5.23;;;3.33;;
3847;SDS011;1939;48.720;9.166;2022-10-16T17:24:49;5.10;;;3.40;;